Time;durP1;ratioP1;P1;durP2;ratioP2;P2;SDS_P1;SDS_P2;PMS_P1;PMS_P2;Temp;Humidity;BMP_temperature;BMP_pressure;BME280_temperature;BME280_humidity;BME280_pressure;Samples;Min_cycle;Max_cycle;Signal;HPM_P1;HPM_P2
2022/06/15 00:00:33;;;;;;;1.27;1.17;;;;;;;;;;4977650;28;20034;-81
2022/06/15 00:02:59;;;;;;;3.15;1.50;;;;;;;;;;4960003;28;20033;-83
2022/06/15 00:05:24;;;;;;;2.28;1.40;;;;;;;;;;4960030;28;20015;-81
2022/06/15 00:07:49;;;;;;;1.30;1.20;;;;;;;;;;4976276;28;20447;-82
2022/06/15 00:10:15;;;;;;;2.30;1.20;;;;;;;;;;4976830;28;20387;-82
2022/06/15 00:12:40;;;;;;;2.17;1.15;;;;;;;;;;4976077;28;20031;-81
2022/06/15 00:15:07;;;;;;;1.58;1.20;;;;;;;;;;4977141;28;20031;-82
2022/06/15 00:17:32;;;;;;;1.40;1.30;;;;;;;;;;4959912;28;20113;-81
2022/06/15 00:19:58;;;;;;;2.50;1.25;;;;;;;;;;4977227;28;20190;-81
2022/06/15 00:22:23;;;;;;;1.40;1.17;;;;;;;;;;4960075;28;20476;-81
2022/06/15 00:24:49;;;;;;;2.13;1.30;;;;;;;;;;4977255;28;20038;-81
2022/06/15 00:27:14;;;;;;;1.13;1.00;;;;;;;;;;4976033;28;20459;-81
2022/06/15 00:29:39;;;;;;;1.90;1.30;;;;;;;;;;4975951;28;20046;-81
2022/06/15 00:32:06;;;;;;;2.15;1.27;;;;;;;;;;4959550;28;20030;-82
2022/06/15 00:34:31;;;;;;;2.05;1.30;;;;;;;;;;4975661;28;20041;-82
2022/06/15 00:36:57;;;;;;;2.47;1.60;;;;;;;;;;4977547;28;20031;-82
2022/06/15 00:39:22;;;;;;;1.48;1.25;;;;;;;;;;4975741;28;20058;-82
2022/06/15 00:41:47;;;;;;;2.58;1.40;;;;;;;;;;4976983;28;20038;-82
2022/06/15 00:44:19;;;;;;;1.95;1.30;;;;;;;;;;4977040;28;20058;-82
2022/06/15 00:47:08;;;;;;;1.33;1.23;;;;;;;;;;4976645;28;20026;-81
2022/06/15 00:49:41;;;;;;;3.08;1.30;;;;;;;;;;4976600;28;20027;-81
2022/06/15 00:52:14;;;;;;;1.30;1.17;;;;;;;;;;4975741;28;20026;-82
2022/06/15 00:54:42;;;;;;;2.13;1.30;;;;;;;;;;4975502;28;20030;-82
2022/06/15 00:57:07;;;;;;;1.60;1.30;;;;;;;;;;4975034;28;20027;-81
2022/06/15 00:59:37;;;;;;;1.40;1.10;;;;;;;;;;4975248;28;20085;-81
2022/06/15 01:02:03;;;;;;;1.20;1.10;;;;;;;;;;4974654;28;20109;-80
2022/06/15 01:04:43;;;;;;;2.08;1.45;;;;;;;;;;4975088;28;20062;-81
2022/06/15 01:07:37;;;;;;;2.03;1.23;;;;;;;;;;4975234;28;20030;-81
2022/06/15 01:10:30;;;;;;;2.85;1.30;;;;;;;;;;4976294;28;20029;-81
2022/06/15 01:13:04;;;;;;;1.27;1.17;;;;;;;;;;4976198;28;20015;-81
2022/06/15 01:15:36;;;;;;;2.00;1.33;;;;;;;;;;4976155;28;20042;-81
2022/06/15 01:18:16;;;;;;;1.48;1.10;;;;;;;;;;4976166;28;20046;-81
2022/06/15 01:20:53;;;;;;;2.38;1.52;;;;;;;;;;4976054;28;20052;-81
2022/06/15 01:23:39;;;;;;;2.05;1.10;;;;;;;;;;4975000;28;20022;-81
2022/06/15 01:26:17;;;;;;;1.38;1.02;;;;;;;;;;4974889;28;20023;-81
2022/06/15 01:28:53;;;;;;;1.20;1.05;;;;;;;;;;4976276;28;20034;-81
2022/06/15 01:31:41;;;;;;;1.33;1.23;;;;;;;;;;4974797;28;20035;-81
2022/06/15 01:34:32;;;;;;;1.40;1.02;;;;;;;;;;4976037;28;20034;-81
2022/06/15 01:37:04;;;;;;;1.60;1.30;;;;;;;;;;4974486;28;20034;-81
2022/06/15 01:39:34;;;;;;;1.90;1.13;;;;;;;;;;4974612;28;20029;-81
2022/06/15 01:42:05;;;;;;;1.95;1.02;;;;;;;;;;4975948;28;20030;-81
2022/06/15 01:44:41;;;;;;;2.13;1.13;;;;;;;;;;4974368;28;20130;-81
2022/06/15 01:47:10;;;;;;;1.42;1.30;;;;;;;;;;4974474;28;20106;-81
2022/06/15 01:49:40;;;;;;;1.40;1.15;;;;;;;;;;4974093;28;20432;-81
2022/06/15 01:52:08;;;;;;;1.58;1.27;;;;;;;;;;4974428;28;20132;-81
2022/06/15 01:54:36;;;;;;;1.45;1.23;;;;;;;;;;4974540;28;20031;-81
2022/06/15 01:57:04;;;;;;;1.88;1.20;;;;;;;;;;4973884;28;20479;-81
2022/06/15 01:59:38;;;;;;;1.65;1.35;;;;;;;;;;4973757;28;20053;-82
2022/06/15 02:02:20;;;;;;;1.10;1.00;;;;;;;;;;4974023;28;20430;-81
2022/06/15 02:05:27;;;;;;;2.42;1.20;;;;;;;;;;4957778;28;20058;-81
2022/06/15 02:08:18;;;;;;;2.83;1.20;;;;;;;;;;4969434;28;20034;-81
2022/06/15 02:10:58;;;;;;;1.55;1.27;;;;;;;;;;4954575;28;20218;-81
2022/06/15 02:13:29;;;;;;;1.83;1.20;;;;;;;;;;4975096;28;20023;-81
2022/06/15 02:16:03;;;;;;;1.50;1.17;;;;;;;;;;4957815;28;20373;-82
2022/06/15 02:18:30;;;;;;;2.45;1.50;;;;;;;;;;4973621;28;20072;-81
2022/06/15 02:21:01;;;;;;;1.95;1.17;;;;;;;;;;4941210;28;20078;-81
2022/06/15 02:23:29;;;;;;;2.15;1.20;;;;;;;;;;4973477;28;20039;-81
2022/06/15 02:25:56;;;;;;;3.78;1.42;;;;;;;;;;4973759;28;20039;-81
2022/06/15 02:28:28;;;;;;;1.20;1.10;;;;;;;;;;4973418;28;20038;-81
2022/06/15 02:30:54;;;;;;;3.92;1.33;;;;;;;;;;4973444;28;20089;-81
2022/06/15 02:33:23;;;;;;;2.40;1.30;;;;;;;;;;4957235;28;20132;-81
2022/06/15 02:35:49;;;;;;;3.15;1.40;;;;;;;;;;4974538;28;20035;-81
2022/06/15 02:38:15;;;;;;;1.20;1.10;;;;;;;;;;4973178;28;20122;-81
2022/06/15 02:40:40;;;;;;;1.60;1.20;;;;;;;;;;4974308;28;20034;-81
2022/06/15 02:43:06;;;;;;;2.03;1.52;;;;;;;;;;4957255;28;20030;-81
2022/06/15 02:45:34;;;;;;;1.02;0.90;;;;;;;;;;4956688;28;20130;-81
2022/06/15 02:48:00;;;;;;;2.88;1.30;;;;;;;;;;4957187;28;20471;-81
2022/06/15 02:50:29;;;;;;;1.27;1.10;;;;;;;;;;4956991;28;20085;-81
2022/06/15 02:53:00;;;;;;;3.45;1.45;;;;;;;;;;4972944;28;20022;-80
2022/06/15 02:55:25;;;;;;;3.45;1.40;;;;;;;;;;4972904;28;20031;-81
2022/06/15 02:58:13;;;;;;;1.25;1.15;;;;;;;;;;4956583;28;20471;-81
2022/06/15 03:00:39;;;;;;;2.08;1.17;;;;;;;;;;4973011;28;20055;-81
2022/06/15 03:03:05;;;;;;;2.08;1.20;;;;;;;;;;4974344;28;20479;-81
2022/06/15 03:05:30;;;;;;;2.13;1.25;;;;;;;;;;4974089;28;20042;-81
2022/06/15 03:07:56;;;;;;;2.33;1.38;;;;;;;;;;4973733;28;20031;-82
2022/06/15 03:10:22;;;;;;;2.28;1.35;;;;;;;;;;4972577;28;20130;-81
2022/06/15 03:12:48;;;;;;;1.75;1.10;;;;;;;;;;4972320;28;20031;-82
2022/06/15 03:15:14;;;;;;;5.18;1.27;;;;;;;;;;4972344;28;20035;-82
2022/06/15 03:17:39;;;;;;;1.13;1.02;;;;;;;;;;4974000;28;20133;-81
2022/06/15 03:20:06;;;;;;;1.73;1.27;;;;;;;;;;4956312;28;20503;-81
2022/06/15 03:22:35;;;;;;;2.70;1.27;;;;;;;;;;4972206;28;20038;-81
2022/06/15 03:25:00;;;;;;;4.22;1.23;;;;;;;;;;4972318;28;20038;-81
2022/06/15 03:27:25;;;;;;;3.45;1.40;;;;;;;;;;4973824;28;20361;-81
2022/06/15 03:29:51;;;;;;;2.83;1.30;;;;;;;;;;4956352;28;20039;-81
2022/06/15 03:32:17;;;;;;;1.30;1.17;;;;;;;;;;4972857;28;20034;-81
2022/06/15 03:34:43;;;;;;;2.50;1.48;;;;;;;;;;4973560;28;20037;-81
2022/06/15 03:37:09;;;;;;;1.83;1.42;;;;;;;;;;4972335;28;20114;-81
2022/06/15 03:39:35;;;;;;;2.13;1.10;;;;;;;;;;4972780;28;20468;-81
2022/06/15 03:42:14;;;;;;;1.25;1.10;;;;;;;;;;4972342;28;20072;-81
2022/06/15 03:44:41;;;;;;;1.92;1.13;;;;;;;;;;4973525;28;20027;-81
2022/06/15 03:47:10;;;;;;;2.78;1.15;;;;;;;;;;4972105;28;20023;-80
2022/06/15 03:49:35;;;;;;;1.98;1.20;;;;;;;;;;4956483;28;20384;-80
2022/06/15 03:52:00;;;;;;;1.10;1.00;;;;;;;;;;4973542;28;20081;-80
2022/06/15 03:54:26;;;;;;;1.73;1.40;;;;;;;;;;4973648;28;20471;-81
2022/06/15 03:56:51;;;;;;;1.40;1.10;;;;;;;;;;4972005;28;20108;-81
2022/06/15 03:59:16;;;;;;;2.03;1.27;;;;;;;;;;4972600;28;20030;-81
2022/06/15 04:01:42;;;;;;;1.67;1.23;;;;;;;;;;4972392;28;20038;-81
2022/06/15 04:04:09;;;;;;;1.00;1.00;;;;;;;;;;4972475;28;20050;-81
2022/06/15 04:06:34;;;;;;;2.28;1.60;;;;;;;;;;4973295;28;20554;-81
2022/06/15 04:09:00;;;;;;;2.00;1.45;;;;;;;;;;4973482;28;20070;-81
2022/06/15 04:14:10;;;;;;;;;;;;;;;;;;4972903;28;20109;-80
2022/06/15 04:16:35;;;;;;;3.22;1.30;;;;;;;;;;4973427;28;19926;-79
2022/06/15 04:19:02;;;;;;;1.70;1.00;;;;;;;;;;4971985;28;20133;-83
2022/06/15 04:21:28;;;;;;;5.20;1.33;;;;;;;;;;4972280;28;20085;-82
2022/06/15 04:23:54;;;;;;;4.10;1.38;;;;;;;;;;4971909;28;20064;-82
2022/06/15 04:26:20;;;;;;;2.58;1.30;;;;;;;;;;4971845;28;20037;-84
2022/06/15 04:28:46;;;;;;;4.55;1.50;;;;;;;;;;4972318;28;20038;-83
2022/06/15 04:31:11;;;;;;;4.63;1.50;;;;;;;;;;4974454;28;20034;-81
2022/06/15 04:33:37;;;;;;;2.28;1.42;;;;;;;;;;4957793;28;20065;-82
2022/06/15 04:36:02;;;;;;;2.67;1.70;;;;;;;;;;4976791;28;20038;-82
2022/06/15 04:38:28;;;;;;;4.18;1.45;;;;;;;;;;4976358;28;20049;-81
2022/06/15 04:40:53;;;;;;;10.57;3.03;;;;;;;;;;4976991;28;20030;-81
2022/06/15 04:43:19;;;;;;;5.75;2.25;;;;;;;;;;4962040;28;20516;-81
2022/06/15 04:45:44;;;;;;;11.02;3.35;;;;;;;;;;4977703;28;20395;-80
2022/06/15 04:48:10;;;;;;;8.32;2.60;;;;;;;;;;4961110;28;20086;-82
2022/06/15 04:50:36;;;;;;;7.57;2.65;;;;;;;;;;4965090;28;20098;-83
2022/06/15 04:53:02;;;;;;;7.10;3.13;;;;;;;;;;4985487;28;20562;-81
2022/06/15 04:55:27;;;;;;;4.13;2.58;;;;;;;;;;4984951;28;20066;-81
2022/06/15 04:57:54;;;;;;;9.05;2.85;;;;;;;;;;4956286;28;20073;-82
2022/06/15 05:00:23;;;;;;;4.47;2.28;;;;;;;;;;4987970;28;20031;-82
2022/06/15 05:03:02;;;;;;;5.00;2.13;;;;;;;;;;4985908;28;20026;-82
2022/06/15 05:05:28;;;;;;;5.40;2.40;;;;;;;;;;4964750;28;20034;-79
2022/06/15 05:07:53;;;;;;;35.65;7.53;;;;;;;;;;4981562;28;20019;-85
2022/06/15 05:10:21;;;;;;;25.15;5.53;;;;;;;;;;4962852;28;20097;-81
2022/06/15 05:12:47;;;;;;;17.83;5.93;;;;;;;;;;4961261;28;20391;-82
2022/06/15 05:15:14;;;;;;;21.33;5.22;;;;;;;;;;4978712;28;20031;-83
2022/06/15 05:17:41;;;;;;;24.85;5.53;;;;;;;;;;4977866;28;20023;-84
2022/06/15 05:20:08;;;;;;;14.48;3.95;;;;;;;;;;4977438;28;20058;-84
2022/06/15 05:22:33;;;;;;;12.25;3.80;;;;;;;;;;4961367;28;20129;-85
2022/06/15 05:24:59;;;;;;;10.40;3.63;;;;;;;;;;4977532;28;20433;-86
2022/06/15 05:27:24;;;;;;;12.77;3.20;;;;;;;;;;4978707;28;20027;-85
2022/06/15 05:29:49;;;;;;;16.70;3.53;;;;;;;;;;4979275;28;20034;-85
2022/06/15 05:32:15;;;;;;;11.43;3.67;;;;;;;;;;4978246;28;20035;-85
2022/06/15 05:34:40;;;;;;;10.38;3.55;;;;;;;;;;4962223;28;20419;-86
2022/06/15 05:37:06;;;;;;;7.55;2.55;;;;;;;;;;4979942;28;20070;-87
2022/06/15 05:39:31;;;;;;;8.18;2.88;;;;;;;;;;4982782;28;20087;-86
2022/06/15 05:41:56;;;;;;;10.90;3.10;;;;;;;;;;4976827;28;20054;-86
2022/06/15 05:46:55;;;;;;;8.00;2.28;;;;;;;;;;4978679;28;20027;-84
2022/06/15 05:49:20;;;;;;;7.80;2.78;;;;;;;;;;4966182;28;20027;-85
2022/06/15 05:51:46;;;;;;;7.88;2.33;;;;;;;;;;4978944;28;20038;-85
2022/06/15 05:54:11;;;;;;;5.68;2.40;;;;;;;;;;4977382;28;20049;-85
2022/06/15 05:56:37;;;;;;;8.18;2.40;;;;;;;;;;4975999;28;20126;-85
2022/06/15 05:59:02;;;;;;;5.35;2.40;;;;;;;;;;4979063;28;20066;-85
2022/06/15 06:01:36;;;;;;;4.40;1.80;;;;;;;;;;4977097;28;20039;-84
2022/06/15 06:04:02;;;;;;;4.55;1.90;;;;;;;;;;4978204;28;20027;-84
2022/06/15 06:06:29;;;;;;;6.15;2.50;;;;;;;;;;4979397;28;20087;-84
2022/06/15 06:08:55;;;;;;;5.82;1.95;;;;;;;;;;4977538;28;20027;-85
2022/06/15 06:11:20;;;;;;;3.83;1.67;;;;;;;;;;4980206;28;20023;-84
2022/06/15 06:13:47;;;;;;;4.75;1.80;;;;;;;;;;4962261;28;20070;-84
2022/06/15 06:16:12;;;;;;;2.35;1.55;;;;;;;;;;4977548;28;20122;-84
2022/06/15 06:18:38;;;;;;;5.80;1.90;;;;;;;;;;4977767;28;20169;-83
2022/06/15 06:21:05;;;;;;;4.93;1.60;;;;;;;;;;4978074;28;20071;-84
2022/06/15 06:23:31;;;;;;;2.03;1.52;;;;;;;;;;4978595;28;20033;-85
2022/06/15 06:25:56;;;;;;;4.43;1.75;;;;;;;;;;4979901;28;20030;-85
2022/06/15 06:28:32;;;;;;;4.47;1.52;;;;;;;;;;4961254;28;20042;-86
2022/06/15 06:30:58;;;;;;;6.03;2.20;;;;;;;;;;4977210;28;20039;-85
2022/06/15 06:33:25;;;;;;;4.25;1.63;;;;;;;;;;4977824;28;20085;-83
2022/06/15 06:35:51;;;;;;;6.60;1.35;;;;;;;;;;4960801;28;20031;-83
2022/06/15 06:38:16;;;;;;;1.63;1.33;;;;;;;;;;4942110;28;20471;-82
2022/06/15 06:40:41;;;;;;;3.08;1.17;;;;;;;;;;4975081;28;20034;-83
2022/06/15 06:43:07;;;;;;;5.40;1.92;;;;;;;;;;4974390;28;20094;-82
2022/06/15 06:45:32;;;;;;;8.88;1.52;;;;;;;;;;4962626;28;20103;-82
2022/06/15 06:48:00;;;;;;;6.25;1.80;;;;;;;;;;4978844;28;20030;-83
2022/06/15 06:50:25;;;;;;;4.50;1.63;;;;;;;;;;4962153;28;20037;-82
2022/06/15 06:52:51;;;;;;;2.90;1.42;;;;;;;;;;4978260;28;20038;-83
2022/06/15 06:55:16;;;;;;;3.90;1.33;;;;;;;;;;4976185;28;20034;-83
2022/06/15 06:57:42;;;;;;;5.82;1.60;;;;;;;;;;4974672;28;20030;-84
2022/06/15 07:00:08;;;;;;;4.22;1.52;;;;;;;;;;4975051;28;20039;-85
2022/06/15 07:02:34;;;;;;;4.45;1.25;;;;;;;;;;4974197;28;20557;-83
2022/06/15 07:04:59;;;;;;;4.63;1.40;;;;;;;;;;4974565;28;20066;-83
2022/06/15 07:07:24;;;;;;;1.80;1.15;;;;;;;;;;4974619;28;20029;-83
2022/06/15 07:09:50;;;;;;;2.75;1.13;;;;;;;;;;4974212;28;20030;-83
2022/06/15 07:12:15;;;;;;;2.97;1.20;;;;;;;;;;4976267;28;20503;-83
2022/06/15 07:14:41;;;;;;;3.88;1.20;;;;;;;;;;4957969;28;20027;-84
2022/06/15 07:17:06;;;;;;;3.05;1.40;;;;;;;;;;4975866;28;20042;-83
2022/06/15 07:19:31;;;;;;;1.85;1.00;;;;;;;;;;4957234;28;20053;-83
2022/06/15 07:21:57;;;;;;;1.80;1.00;;;;;;;;;;4973771;28;20482;-83
2022/06/15 07:24:22;;;;;;;2.15;1.58;;;;;;;;;;4973701;28;20034;-86
2022/06/15 07:26:47;;;;;;;1.77;1.10;;;;;;;;;;4975243;28;20034;-86
2022/06/15 07:29:16;;;;;;;3.35;1.08;;;;;;;;;;4975068;28;20133;-84
2022/06/15 07:31:45;;;;;;;4.35;1.20;;;;;;;;;;4975381;28;20419;-84
2022/06/15 07:34:10;;;;;;;3.53;1.50;;;;;;;;;;4973610;28;20053;-82
2022/06/15 07:36:37;;;;;;;2.90;1.00;;;;;;;;;;4973132;28;20047;-83
2022/06/15 07:39:04;;;;;;;6.10;1.30;;;;;;;;;;4975228;28;20054;-85
2022/06/15 07:41:29;;;;;;;4.00;1.60;;;;;;;;;;4976270;28;20491;-84
2022/06/15 07:43:55;;;;;;;9.50;1.73;;;;;;;;;;4975436;28;20034;-83
2022/06/15 07:46:21;;;;;;;3.92;1.23;;;;;;;;;;4974290;28;20030;-84
2022/06/15 07:51:41;;;;;;;6.60;1.50;;;;;;;;;;4974915;28;20118;-83
2022/06/15 07:54:09;;;;;;;1.83;1.00;;;;;;;;;;4973594;28;20019;-84
2022/06/15 07:56:36;;;;;;;4.53;1.10;;;;;;;;;;4974321;28;20368;-84
2022/06/15 07:59:02;;;;;;;4.28;1.63;;;;;;;;;;4956918;28;20039;-84
2022/06/15 08:01:27;;;;;;;6.57;1.33;;;;;;;;;;4974492;28;20568;-83
2022/06/15 08:03:54;;;;;;;6.10;1.63;;;;;;;;;;4956647;28;20027;-82
2022/06/15 08:06:21;;;;;;;3.30;1.10;;;;;;;;;;4974389;28;20057;-83
2022/06/15 08:08:46;;;;;;;2.13;1.02;;;;;;;;;;4972730;28;20531;-82
2022/06/15 08:11:12;;;;;;;3.15;1.00;;;;;;;;;;4976240;28;20038;-83
2022/06/15 08:13:38;;;;;;;1.67;1.10;;;;;;;;;;4976903;28;20173;-84
2022/06/15 08:16:04;;;;;;;3.83;1.02;;;;;;;;;;4978087;28;20066;-84
2022/06/15 08:18:32;;;;;;;2.13;1.08;;;;;;;;;;4977012;28;20077;-84
2022/06/15 08:21:03;;;;;;;2.85;1.60;;;;;;;;;;4976904;28;20043;-84
2022/06/15 08:23:36;;;;;;;1.00;0.90;;;;;;;;;;4978337;28;20041;-83
2022/06/15 08:26:10;;;;;;;3.03;1.30;;;;;;;;;;4978084;28;20026;-82
2022/06/15 08:28:39;;;;;;;2.33;1.50;;;;;;;;;;4961033;28;20350;-83
2022/06/15 08:31:04;;;;;;;1.42;1.02;;;;;;;;;;4977257;28;20065;-82
2022/06/15 08:33:30;;;;;;;2.85;0.95;;;;;;;;;;4977070;28;20031;-83
2022/06/15 08:35:55;;;;;;;1.45;1.00;;;;;;;;;;4960573;28;20137;-83
2022/06/15 08:38:23;;;;;;;2.70;1.17;;;;;;;;;;4976317;28;20516;-83
2022/06/15 08:40:51;;;;;;;1.50;0.90;;;;;;;;;;4976132;28;20037;-83
2022/06/15 08:43:26;;;;;;;1.70;1.17;;;;;;;;;;4976497;28;20392;-83
2022/06/15 08:45:56;;;;;;;1.63;1.00;;;;;;;;;;4976602;28;20022;-83
2022/06/15 08:48:37;;;;;;;1.88;1.00;;;;;;;;;;4977537;28;20037;-83
2022/06/15 08:51:10;;;;;;;1.73;1.20;;;;;;;;;;4978006;28;20049;-83
2022/06/15 08:53:54;;;;;;;5.82;1.20;;;;;;;;;;4977406;28;20023;-82
2022/06/15 08:56:31;;;;;;;2.60;1.15;;;;;;;;;;4977381;28;20026;-83
2022/06/15 08:59:05;;;;;;;3.15;0.98;;;;;;;;;;4975836;28;20089;-82
2022/06/15 09:01:42;;;;;;;3.88;1.23;;;;;;;;;;4977949;28;20441;-82
2022/06/15 09:04:37;;;;;;;2.45;0.95;;;;;;;;;;4960026;28;20035;-81
2022/06/15 09:07:05;;;;;;;1.77;0.90;;;;;;;;;;4976077;28;20069;-82
2022/06/15 09:09:37;;;;;;;3.83;1.10;;;;;;;;;;4976533;28;20058;-81
2022/06/15 09:15:10;;;;;;;4.00;1.10;;;;;;;;;;4975838;28;20038;-82
2022/06/15 09:17:37;;;;;;;1.92;1.30;;;;;;;;;;4977140;28;20118;-81
2022/06/15 09:20:08;;;;;;;4.45;1.40;;;;;;;;;;4976772;28;20043;-82
2022/06/15 09:22:50;;;;;;;3.25;1.15;;;;;;;;;;4976410;28;20033;-80
2022/06/15 09:25:40;;;;;;;5.85;1.10;;;;;;;;;;4976000;28;20038;-82
2022/06/15 09:28:12;;;;;;;1.40;1.00;;;;;;;;;;4976705;28;20023;-82
2022/06/15 09:30:41;;;;;;;3.17;1.25;;;;;;;;;;4978166;28;20022;-82
2022/06/15 09:33:22;;;;;;;2.05;1.15;;;;;;;;;;4977802;28;20031;-82
2022/06/15 09:35:51;;;;;;;1.65;1.23;;;;;;;;;;4975818;28;20029;-80
2022/06/15 09:38:17;;;;;;;4.75;2.00;;;;;;;;;;4975561;28;20462;-80
2022/06/15 09:40:54;;;;;;;5.93;1.40;;;;;;;;;;4978623;28;20054;-82
2022/06/15 09:43:37;;;;;;;3.88;1.15;;;;;;;;;;4961109;28;20073;-83
2022/06/15 09:46:29;;;;;;;4.18;1.45;;;;;;;;;;4976981;28;20509;-82
2022/06/15 09:49:25;;;;;;;3.47;1.50;;;;;;;;;;4964471;28;20039;-82
2022/06/15 09:52:05;;;;;;;5.43;1.38;;;;;;;;;;4978382;28;20416;-83
2022/06/15 09:54:57;;;;;;;5.22;1.70;;;;;;;;;;4982320;28;20027;-82
2022/06/15 09:57:22;;;;;;;3.10;1.60;;;;;;;;;;4976734;28;20023;-81
2022/06/15 09:59:48;;;;;;;5.18;1.13;;;;;;;;;;4971784;28;20038;-82
2022/06/15 10:02:21;;;;;;;3.80;1.42;;;;;;;;;;4976068;28;20027;-82
2022/06/15 10:04:48;;;;;;;5.28;1.65;;;;;;;;;;4974195;28;20047;-82
2022/06/15 10:07:20;;;;;;;4.72;1.50;;;;;;;;;;4958524;28;20052;-82
2022/06/15 10:09:51;;;;;;;2.95;1.10;;;;;;;;;;4973969;28;20502;-82
2022/06/15 10:15:18;;;;;;;2.15;1.30;;;;;;;;;;4975556;28;20101;-82
2022/06/15 10:17:51;;;;;;;3.10;1.40;;;;;;;;;;4978501;28;20030;-83
2022/06/15 10:20:30;;;;;;;3.42;1.85;;;;;;;;;;4974096;28;20047;-82
2022/06/15 10:22:57;;;;;;;2.40;1.50;;;;;;;;;;4975661;28;20042;-82
2022/06/15 10:25:23;;;;;;;3.30;1.25;;;;;;;;;;4974180;28;20026;-83
2022/06/15 10:27:51;;;;;;;3.13;1.23;;;;;;;;;;4975441;28;20367;-82
2022/06/15 10:30:21;;;;;;;2.97;1.80;;;;;;;;;;4974105;28;20513;-82
2022/06/15 10:33:13;;;;;;;1.58;1.20;;;;;;;;;;4975082;28;20031;-82
2022/06/15 10:35:38;;;;;;;1.67;1.00;;;;;;;;;;4974044;28;20112;-83
2022/06/15 10:38:10;;;;;;;2.42;1.23;;;;;;;;;;4974169;28;20113;-83
2022/06/15 10:40:37;;;;;;;1.60;1.10;;;;;;;;;;4957833;28;20025;-82
2022/06/15 10:43:06;;;;;;;3.40;1.17;;;;;;;;;;4974241;28;20046;-82
2022/06/15 10:45:42;;;;;;;2.97;1.38;;;;;;;;;;4975152;28;20030;-83
2022/06/15 10:48:38;;;;;;;2.30;1.30;;;;;;;;;;4975292;28;20023;-83
2022/06/15 10:51:05;;;;;;;5.63;0.98;;;;;;;;;;4967183;28;20097;-82
2022/06/15 10:53:33;;;;;;;2.03;1.30;;;;;;;;;;4973014;28;20041;-82
2022/06/15 11:02:07;;;;;;;1.77;1.00;;;;;;;;;;4955922;29;19937;-81
2022/06/15 11:04:35;;;;;;;1.00;0.90;;;;;;;;;;4953435;29;20532;-80
2022/06/15 11:07:08;;;;;;;2.42;1.33;;;;;;;;;;4953814;29;20090;-80
2022/06/15 11:09:41;;;;;;;1.67;1.17;;;;;;;;;;4953835;29;20025;-81
2022/06/15 11:12:26;;;;;;;2.63;1.48;;;;;;;;;;4954129;29;20019;-81
2022/06/15 11:15:00;;;;;;;1.98;1.40;;;;;;;;;;4954288;29;20114;-81
2022/06/15 11:20:55;;;;;;;3.15;1.23;;;;;;;;;;4953989;29;20061;-81
2022/06/15 11:23:46;;;;;;;1.63;1.23;;;;;;;;;;4954244;29;20038;-81
2022/06/15 11:26:52;;;;;;;3.33;1.25;;;;;;;;;;4954432;28;20027;-80
2022/06/15 11:29:41;;;;;;;1.65;1.20;;;;;;;;;;4956032;28;20267;-80
2022/06/15 11:32:16;;;;;;;1.50;1.00;;;;;;;;;;4974815;28;20057;-80
2022/06/15 11:34:50;;;;;;;2.78;1.30;;;;;;;;;;4972744;28;20575;-82
2022/06/15 11:37:24;;;;;;;5.43;1.30;;;;;;;;;;4956545;28;20085;-80
2022/06/15 11:39:56;;;;;;;14.55;2.17;;;;;;;;;;4973579;28;20054;-81
2022/06/15 11:42:23;;;;;;;3.33;1.58;;;;;;;;;;4973201;28;20084;-82
2022/06/15 11:44:49;;;;;;;2.92;1.42;;;;;;;;;;4974737;28;20025;-81
2022/06/15 11:47:46;;;;;;;2.42;1.40;;;;;;;;;;4958020;28;20415;-80
2022/06/15 11:50:29;;;;;;;2.97;1.15;;;;;;;;;;4969650;28;20070;-81
2022/06/15 11:53:13;;;;;;;1.98;1.27;;;;;;;;;;4972345;28;20352;-81
2022/06/15 11:55:45;;;;;;;8.75;1.40;;;;;;;;;;4974473;28;20031;-81
2022/06/15 11:58:30;;;;;;;5.10;1.40;;;;;;;;;;4972214;28;20035;-82
2022/06/15 12:01:23;;;;;;;1.30;1.00;;;;;;;;;;4973406;28;20097;-81
2022/06/15 12:04:11;;;;;;;3.13;1.15;;;;;;;;;;4972907;28;20106;-81
2022/06/15 12:07:13;;;;;;;6.00;1.30;;;;;;;;;;4973316;28;20041;-81
2022/06/15 12:09:51;;;;;;;1.10;1.00;;;;;;;;;;4942391;28;20041;-81
2022/06/15 12:12:37;;;;;;;2.38;1.30;;;;;;;;;;4973548;28;20190;-80
2022/06/15 12:15:21;;;;;;;2.13;1.15;;;;;;;;;;4973668;28;20424;-80
2022/06/15 12:18:08;;;;;;;;;;;;;;;;;;4974458;28;20082;-80
2022/06/15 12:21:04;;;;;;;10.35;1.40;;;;;;;;;;4973155;28;19929;-81
2022/06/15 12:23:56;;;;;;;2.13;1.00;;;;;;;;;;4975952;28;20030;-80
2022/06/15 12:26:31;;;;;;;3.92;1.30;;;;;;;;;;4957594;28;20073;-81
2022/06/15 12:29:11;;;;;;;2.15;1.27;;;;;;;;;;4973062;28;20114;-80
2022/06/15 12:34:58;;;;;;;2.08;1.30;;;;;;;;;;4974473;28;20093;-80
2022/06/15 12:37:34;;;;;;;1.48;1.13;;;;;;;;;;4973173;28;20051;-80
2022/06/15 12:40:02;;;;;;;2.85;1.20;;;;;;;;;;4973411;28;20022;-81
2022/06/15 12:42:28;;;;;;;1.65;1.40;;;;;;;;;;4974131;28;20086;-80
2022/06/15 12:44:58;;;;;;;4.18;1.25;;;;;;;;;;4973273;28;20066;-80
2022/06/15 12:47:25;;;;;;;2.97;1.10;;;;;;;;;;4972190;28;20356;-80
2022/06/15 12:50:09;;;;;;;1.35;1.10;;;;;;;;;;4972209;28;20492;-81
2022/06/15 12:52:39;;;;;;;2.28;1.15;;;;;;;;;;4973541;28;20034;-81
2022/06/15 12:55:23;;;;;;;1.75;1.20;;;;;;;;;;4973742;28;20042;-80
2022/06/15 12:58:07;;;;;;;13.75;1.30;;;;;;;;;;4961006;28;20026;-79
2022/06/15 13:00:45;;;;;;;1.77;1.30;;;;;;;;;;4976946;28;20045;-80
2022/06/15 13:03:23;;;;;;;2.20;1.30;;;;;;;;;;4974940;28;20061;-81
2022/06/15 13:05:48;;;;;;;2.97;1.33;;;;;;;;;;4974840;28;20443;-80
2022/06/15 13:08:20;;;;;;;2.85;1.10;;;;;;;;;;4975761;28;20023;-81
2022/06/15 13:10:54;;;;;;;3.53;1.20;;;;;;;;;;4974620;28;20027;-80
2022/06/15 13:13:27;;;;;;;1.50;1.15;;;;;;;;;;4976834;28;20085;-81
2022/06/15 13:16:07;;;;;;;2.63;1.15;;;;;;;;;;4974833;28;20464;-79
2022/06/15 13:18:53;;;;;;;3.22;1.13;;;;;;;;;;4974293;28;20340;-80
2022/06/15 13:21:25;;;;;;;1.95;1.17;;;;;;;;;;4958474;28;20111;-81
2022/06/15 13:23:59;;;;;;;2.92;1.23;;;;;;;;;;4958272;28;20101;-81
2022/06/15 13:26:50;;;;;;;2.28;1.30;;;;;;;;;;4977593;28;20030;-81
2022/06/15 13:29:17;;;;;;;2.03;1.20;;;;;;;;;;4974768;28;20031;-79
2022/06/15 13:31:46;;;;;;;1.67;1.02;;;;;;;;;;4974748;28;20031;-81
2022/06/15 13:34:17;;;;;;;3.28;1.10;;;;;;;;;;4974417;28;20147;-83
2022/06/15 13:37:11;;;;;;;1.25;1.10;;;;;;;;;;4959403;28;20054;-81
2022/06/15 13:39:42;;;;;;;3.08;1.20;;;;;;;;;;4974990;28;20034;-83
2022/06/15 13:42:45;;;;;;;1.65;1.35;;;;;;;;;;4978436;28;20034;-81
2022/06/15 13:45:13;;;;;;;2.60;1.15;;;;;;;;;;4978143;28;20504;-82
2022/06/15 13:47:53;;;;;;;1.42;1.08;;;;;;;;;;4977939;28;20026;-82
2022/06/15 13:50:24;;;;;;;2.05;1.00;;;;;;;;;;4973900;28;20026;-82
2022/06/15 13:52:50;;;;;;;3.42;1.20;;;;;;;;;;4957788;28;20263;-81
2022/06/15 13:55:15;;;;;;;1.20;1.00;;;;;;;;;;4973756;28;20066;-80
2022/06/15 13:58:03;;;;;;;0.80;0.80;;;;;;;;;;4973763;28;20030;-81
2022/06/15 14:00:44;;;;;;;2.28;1.25;;;;;;;;;;4973507;28;20463;-82
2022/06/15 14:03:41;;;;;;;1.20;1.10;;;;;;;;;;4974489;28;20101;-82
2022/06/15 14:06:38;;;;;;;2.22;1.30;;;;;;;;;;4957209;28;20127;-81
2022/06/15 14:09:30;;;;;;;1.17;1.08;;;;;;;;;;4972080;28;20030;-81
2022/06/15 14:12:20;;;;;;;3.95;1.30;;;;;;;;;;4973046;28;20038;-78
2022/06/15 14:15:19;;;;;;;1.10;1.00;;;;;;;;;;4974382;28;20039;-79
2022/06/15 14:18:03;;;;;;;1.27;1.17;;;;;;;;;;4973986;28;20101;-80
2022/06/15 14:20:33;;;;;;;1.95;1.00;;;;;;;;;;4972793;28;20047;-80
2022/06/15 14:23:02;;;;;;;1.23;0.93;;;;;;;;;;4956696;28;20041;-80
2022/06/15 14:25:37;;;;;;;2.00;1.10;;;;;;;;;;4972959;28;20110;-81
2022/06/15 14:28:08;;;;;;;1.65;1.10;;;;;;;;;;4974056;28;20037;-80
2022/06/15 14:30:33;;;;;;;2.08;1.00;;;;;;;;;;4972780;28;20037;-81
2022/06/15 14:33:02;;;;;;;1.60;1.13;;;;;;;;;;4972521;28;20026;-81
2022/06/15 14:35:29;;;;;;;1.27;1.02;;;;;;;;;;4972826;28;20364;-82
2022/06/15 14:37:57;;;;;;;3.53;1.27;;;;;;;;;;4972564;28;20092;-82
2022/06/15 14:40:32;;;;;;;1.30;1.08;;;;;;;;;;4972838;28;20111;-82
2022/06/15 14:42:58;;;;;;;3.20;1.20;;;;;;;;;;4973764;28;20026;-82
2022/06/15 14:45:36;;;;;;;2.67;1.67;;;;;;;;;;4957624;28;20089;-82
2022/06/15 14:48:06;;;;;;;1.77;1.20;;;;;;;;;;4973884;28;20034;-81
2022/06/15 14:50:35;;;;;;;2.08;1.10;;;;;;;;;;4973073;28;20027;-83
2022/06/15 14:53:14;;;;;;;1.63;1.20;;;;;;;;;;4972531;28;20055;-83
2022/06/15 14:55:40;;;;;;;1.20;1.10;;;;;;;;;;4973842;28;20122;-81
2022/06/15 14:58:15;;;;;;;1.52;1.20;;;;;;;;;;4957269;28;20141;-83
2022/06/15 15:00:41;;;;;;;2.65;1.20;;;;;;;;;;4957574;28;20035;-81
2022/06/15 15:03:07;;;;;;;1.55;1.10;;;;;;;;;;4972479;28;20099;-82
2022/06/15 15:05:38;;;;;;;1.90;1.20;;;;;;;;;;4955963;28;20647;-81
2022/06/15 15:08:19;;;;;;;2.17;1.25;;;;;;;;;;4956171;28;20027;-81
2022/06/15 15:10:56;;;;;;;1.95;1.10;;;;;;;;;;4972303;28;20022;-81
2022/06/15 15:13:22;;;;;;;2.22;1.25;;;;;;;;;;4972583;28;20019;-81
2022/06/15 15:16:00;;;;;;;1.83;1.20;;;;;;;;;;4973538;28;20038;-81
2022/06/15 15:18:47;;;;;;;2.03;1.15;;;;;;;;;;4956670;28;20038;-81
2022/06/15 15:21:34;;;;;;;2.28;1.27;;;;;;;;;;4972409;28;20126;-81
2022/06/15 15:24:24;;;;;;;1.13;1.10;;;;;;;;;;4972083;28;20075;-82
2022/06/15 15:27:10;;;;;;;1.10;1.00;;;;;;;;;;4957176;28;20078;-81
2022/06/15 15:35:22;;;;;;;1.65;1.20;;;;;;;;;;4974491;28;20036;-80
2022/06/15 15:37:48;;;;;;;2.53;1.42;;;;;;;;;;4973751;28;20054;-81
2022/06/15 15:40:20;;;;;;;2.45;1.23;;;;;;;;;;4971863;28;20050;-79
2022/06/15 15:42:45;;;;;;;1.38;1.10;;;;;;;;;;4973349;28;20019;-81